createdAt,value
2019-03-12T00:01:53.169Z,4.40
2019-03-12T00:04:25.021Z,4.40
2019-03-12T00:06:57.112Z,4.20
2019-03-12T00:09:29.267Z,4.10
2019-03-12T00:12:01.055Z,4.20
2019-03-12T00:14:32.918Z,4.00
2019-03-12T00:17:04.679Z,4.10
2019-03-12T00:19:36.816Z,4.10
2019-03-12T00:22:08.894Z,4.40
2019-03-12T00:24:41.159Z,4.20
2019-03-12T00:27:13.520Z,4.30
2019-03-12T00:29:45.453Z,4.40
2019-03-12T00:32:17.626Z,4.40
2019-03-12T00:34:49.842Z,4.40
2019-03-12T00:37:21.639Z,4.60
2019-03-12T00:39:53.458Z,4.60
2019-03-12T00:42:25.524Z,4.60
2019-03-12T00:44:57.352Z,4.30
2019-03-12T00:47:29.762Z,4.30
2019-03-12T00:50:01.868Z,4.50
2019-03-12T00:52:33.678Z,4.30
2019-03-12T00:55:05.549Z,4.20
2019-03-12T00:57:37.456Z,4.20
2019-03-12T01:00:12.519Z,4.30
2019-03-12T01:02:44.424Z,4.20
2019-03-12T01:05:16.359Z,4.40
2019-03-12T01:07:48.596Z,4.40
2019-03-12T01:10:20.789Z,4.30
2019-03-12T01:12:52.578Z,4.30
2019-03-12T01:15:24.698Z,4.10
2019-03-12T01:17:56.494Z,4.30
2019-03-12T01:20:28.350Z,4.30
2019-03-12T01:23:00.406Z,4.00
2019-03-12T01:25:32.532Z,3.90
2019-03-12T01:28:04.340Z,3.90
2019-03-12T01:30:36.194Z,3.70
2019-03-12T01:33:07.991Z,3.80
2019-03-12T01:35:39.831Z,3.90
2019-03-12T01:38:11.613Z,3.80
2019-03-12T01:40:43.492Z,3.80
2019-03-12T01:43:15.289Z,3.80
2019-03-12T01:45:47.136Z,3.60
2019-03-12T01:48:19.215Z,3.60
2019-03-12T01:50:51.311Z,3.90
2019-03-12T01:53:23.381Z,4.00
2019-03-12T01:55:55.528Z,4.00
2019-03-12T01:58:27.322Z,3.70
2019-03-12T02:00:59.444Z,3.70
2019-03-12T02:03:31.575Z,3.80
2019-03-12T02:06:03.458Z,3.90
2019-03-12T02:08:35.285Z,4.00
2019-03-12T02:11:07.076Z,3.80
2019-03-12T02:13:38.934Z,3.60
2019-03-12T02:16:10.725Z,3.70
2019-03-12T02:18:43.401Z,3.80
2019-03-12T02:21:15.501Z,3.90
2019-03-12T02:23:47.337Z,4.10
2019-03-12T02:26:19.428Z,4.10
2019-03-12T02:28:51.250Z,4.10
2019-03-12T02:31:23.041Z,3.90
2019-03-12T02:33:54.879Z,4.00
2019-03-12T02:36:26.679Z,3.90
2019-03-12T02:38:58.490Z,4.10
2019-03-12T02:41:30.295Z,3.90
2019-03-12T02:44:02.392Z,3.90
2019-03-12T02:46:34.194Z,4.00
2019-03-12T02:49:09.427Z,3.80
2019-03-12T02:51:39.755Z,3.90
2019-03-12T02:54:11.570Z,4.00
2019-03-12T02:56:43.360Z,3.70
2019-03-12T02:59:15.219Z,4.00
2019-03-12T03:01:47.357Z,3.60
2019-03-12T03:04:19.183Z,3.60
2019-03-12T03:06:58.314Z,3.80
2019-03-12T03:09:30.178Z,3.60
2019-03-12T03:12:01.969Z,3.60
2019-03-12T03:14:40.092Z,3.70
2019-03-12T03:17:15.504Z,3.40
2019-03-12T03:19:47.370Z,3.40
2019-03-12T03:22:19.164Z,3.70
2019-03-12T03:24:51.408Z,3.40
2019-03-12T03:27:23.235Z,3.50
2019-03-12T03:29:55.056Z,3.50
2019-03-12T03:32:26.891Z,3.80
2019-03-12T03:34:58.749Z,3.60
2019-03-12T03:37:30.846Z,3.60
2019-03-12T03:40:02.728Z,3.80
2019-03-12T03:42:34.516Z,3.90
2019-03-12T03:45:06.737Z,3.90
2019-03-12T03:47:38.517Z,3.80
2019-03-12T03:50:10.747Z,3.90
2019-03-12T03:52:42.951Z,3.60
2019-03-12T03:55:16.486Z,4.10
2019-03-12T03:57:48.599Z,4.10
2019-03-12T04:00:21.731Z,3.90
2019-03-12T04:02:53.604Z,4.00
2019-03-12T04:05:25.843Z,4.10
2019-03-12T04:07:57.636Z,4.10
2019-03-12T04:10:29.913Z,4.10
2019-03-12T04:13:01.850Z,4.20
2019-03-12T04:15:33.624Z,4.00
2019-03-12T04:18:05.405Z,4.00
2019-03-12T04:20:37.905Z,4.10
2019-03-12T04:23:09.988Z,4.20
2019-03-12T04:25:41.825Z,4.20
2019-03-12T04:28:13.627Z,4.00
2019-03-12T04:30:45.899Z,4.10
2019-03-12T04:34:07.889Z,4.00
2019-03-12T04:36:39.761Z,3.90
2019-03-12T04:39:12.201Z,3.90
2019-03-12T04:41:44.047Z,4.10
2019-03-12T04:44:15.827Z,4.00
2019-03-12T04:46:48.047Z,4.00
2019-03-12T04:49:19.946Z,3.80
2019-03-12T04:51:51.782Z,3.80
2019-03-12T04:54:23.568Z,3.90
2019-03-12T04:56:55.427Z,4.20
2019-03-12T04:59:27.223Z,4.10
2019-03-12T05:01:59.191Z,4.30
2019-03-12T05:04:30.982Z,4.10
2019-03-12T05:07:02.914Z,4.30
2019-03-12T05:09:34.703Z,4.50
2019-03-12T05:12:06.655Z,4.50
2019-03-12T05:14:41.738Z,4.50
2019-03-12T05:17:28.664Z,4.50
2019-03-12T05:20:00.498Z,4.40
2019-03-12T05:22:32.325Z,4.40
2019-03-12T05:25:04.225Z,4.20
2019-03-12T05:27:36.349Z,4.40
2019-03-12T05:30:12.109Z,4.70
2019-03-12T05:32:43.951Z,4.60
2019-03-12T05:35:16.119Z,4.60
2019-03-12T05:37:47.971Z,4.50
2019-03-12T05:40:20.114Z,4.50
2019-03-12T05:42:51.953Z,4.60
2019-03-12T05:45:23.754Z,4.60
2019-03-12T05:47:55.591Z,4.30
2019-03-12T05:50:27.742Z,4.70
2019-03-12T05:53:13.441Z,4.50
2019-03-12T05:55:45.415Z,4.50
2019-03-12T05:58:17.242Z,4.40
2019-03-12T06:00:49.050Z,4.60
2019-03-12T06:03:21.182Z,4.70
2019-03-12T06:05:52.975Z,4.80
2019-03-12T06:08:24.817Z,4.80
2019-03-12T06:10:57.137Z,4.60
2019-03-12T06:13:29.349Z,4.60
2019-03-12T06:16:01.147Z,4.60
2019-03-12T06:18:32.990Z,4.60
2019-03-12T06:21:04.839Z,4.70
2019-03-12T06:23:36.926Z,4.80
2019-03-12T06:26:08.732Z,4.80
2019-03-12T06:28:40.561Z,4.80
2019-03-12T06:31:30.173Z,4.90
2019-03-12T06:34:08.984Z,4.80
2019-03-12T06:36:54.014Z,4.70
2019-03-12T06:39:47.572Z,4.90
2019-03-12T06:42:30.955Z,4.60
2019-03-12T06:45:27.857Z,4.60
2019-03-12T06:48:12.568Z,4.60
2019-03-12T06:50:57.538Z,4.70
2019-03-12T06:53:40.873Z,4.70
2019-03-12T06:56:23.386Z,4.40
2019-03-12T06:59:12.508Z,4.20
2019-03-12T07:01:54.537Z,4.50
2019-03-12T07:04:57.143Z,4.30
2019-03-12T07:08:06.201Z,4.30
2019-03-12T07:10:55.564Z,4.60
2019-03-12T07:13:49.631Z,5.00
2019-03-12T07:16:35.582Z,5.40
2019-03-12T07:19:29.350Z,5.60
2019-03-12T07:22:32.144Z,6.20
2019-03-12T07:25:09.195Z,6.20
2019-03-12T07:28:18.427Z,6.70
2019-03-12T07:31:08.451Z,7.10
2019-03-12T07:33:53.518Z,7.20
2019-03-12T07:36:39.786Z,7.00
2019-03-12T07:39:24.480Z,7.30
2019-03-12T07:42:07.878Z,7.60
2019-03-12T07:45:01.659Z,7.70
2019-03-12T07:47:47.948Z,7.80
2019-03-12T07:50:57.094Z,7.90
2019-03-12T07:53:42.675Z,7.90
2019-03-12T07:56:45.188Z,8.50
2019-03-12T07:59:36.240Z,8.40
2019-03-12T08:02:29.619Z,8.50
2019-03-12T08:05:20.385Z,8.60
2019-03-12T08:08:20.365Z,8.40
2019-03-12T08:11:14.057Z,8.70
2019-03-12T08:14:00.586Z,8.80
2019-03-12T08:16:51.671Z,9.10
2019-03-12T08:19:51.715Z,9.60
2019-03-12T08:22:36.400Z,9.60
2019-03-12T08:25:26.566Z,10.00
2019-03-12T08:28:20.501Z,10.20
2019-03-12T08:31:20.493Z,10.30
2019-03-12T08:34:09.693Z,10.00
2019-03-12T08:37:00.821Z,10.60
2019-03-12T08:39:51.553Z,10.40
2019-03-12T08:42:54.638Z,10.90
2019-03-12T08:45:48.923Z,11.00
2019-03-12T08:48:45.333Z,10.70
2019-03-12T08:51:41.867Z,11.40
2019-03-12T08:54:39.905Z,11.50
2019-03-12T08:57:31.006Z,12.00
2019-03-12T09:00:20.420Z,12.10
2019-03-12T09:03:20.307Z,12.00
2019-03-12T09:05:59.845Z,11.90
2019-03-12T09:08:53.437Z,11.80
2019-03-12T09:11:47.034Z,12.40
2019-03-12T09:14:30.451Z,13.10
2019-03-12T09:17:12.103Z,12.50
2019-03-12T09:20:05.980Z,12.90
2019-03-12T09:22:43.263Z,13.00
2019-03-12T09:25:49.708Z,13.10
2019-03-12T09:28:42.177Z,13.20
2019-03-12T09:31:39.202Z,12.90
2019-03-12T09:34:22.968Z,12.80
2019-03-12T09:37:04.587Z,13.20
2019-03-12T09:40:01.263Z,11.90
2019-03-12T09:42:50.697Z,13.10
2019-03-12T09:45:41.432Z,13.90
2019-03-12T09:48:30.856Z,13.90
2019-03-12T09:51:08.182Z,14.20
2019-03-12T09:54:05.154Z,14.70
2019-03-12T09:56:46.189Z,14.90
2019-03-12T09:59:25.587Z,15.20
2019-03-12T10:02:15.346Z,15.70
2019-03-12T10:05:15.396Z,15.10
2019-03-12T10:08:24.280Z,16.20
2019-03-12T10:11:23.890Z,17.00
2019-03-12T10:14:17.717Z,17.00
2019-03-12T10:17:07.406Z,17.10
2019-03-12T10:19:48.178Z,17.70
2019-03-12T10:22:37.816Z,17.50
2019-03-12T10:25:31.734Z,17.90
2019-03-12T10:28:31.681Z,17.70
2019-03-12T10:31:14.297Z,17.30
2019-03-12T10:33:59.831Z,17.40
2019-03-12T10:36:37.686Z,16.50
2019-03-12T10:40:03.331Z,17.20
2019-03-12T10:42:59.866Z,16.90
2019-03-12T10:45:35.940Z,18.20
2019-03-12T10:48:07.834Z,18.90
2019-03-12T10:50:39.687Z,19.30
2019-03-12T10:53:11.499Z,19.60
2019-03-12T10:55:43.352Z,19.40
2019-03-12T10:58:15.155Z,18.10
2019-03-12T11:00:47.354Z,16.10
2019-03-12T11:03:19.437Z,17.20
2019-03-12T11:05:51.551Z,18.20
2019-03-12T11:08:23.346Z,18.30
2019-03-12T11:10:55.190Z,18.60
2019-03-12T11:13:27.040Z,17.30
2019-03-12T11:15:59.224Z,17.20
2019-03-12T11:18:31.044Z,17.60
2019-03-12T11:21:02.923Z,19.00
2019-03-12T11:23:34.791Z,18.30
2019-03-12T11:26:06.661Z,19.10
2019-03-12T11:28:38.461Z,19.30
2019-03-12T11:31:10.586Z,19.90
2019-03-12T11:33:42.474Z,20.70
2019-03-12T11:36:14.420Z,22.10
2019-03-12T11:38:46.671Z,21.80
2019-03-12T11:41:18.852Z,20.80
2019-03-12T11:43:50.748Z,19.90
2019-03-12T11:46:22.565Z,20.70
2019-03-12T11:48:55.252Z,20.40
2019-03-12T11:51:27.114Z,20.40
2019-03-12T11:53:58.987Z,20.70
2019-03-12T11:56:30.826Z,21.00
2019-03-12T11:59:02.752Z,20.20
2019-03-12T12:01:35.074Z,19.40
2019-03-12T12:04:06.873Z,19.20
2019-03-12T12:06:42.453Z,20.20
2019-03-12T12:09:13.766Z,20.90
2019-03-12T12:11:45.582Z,19.80
2019-03-12T12:14:17.382Z,21.00
2019-03-12T12:16:49.248Z,21.90
2019-03-12T12:19:21.034Z,21.30
2019-03-12T12:21:53.353Z,20.20
2019-03-12T12:24:26.673Z,20.90
2019-03-12T12:26:58.651Z,20.30
2019-03-12T12:29:30.445Z,20.20
2019-03-12T12:32:02.301Z,21.10
2019-03-12T12:34:34.099Z,22.60
2019-03-12T12:37:06.572Z,22.40
2019-03-12T12:39:38.614Z,23.30
2019-03-12T12:42:10.807Z,22.30
2019-03-12T12:44:43.048Z,23.50
2019-03-12T12:47:15.599Z,23.90
2019-03-12T12:49:47.685Z,23.90
2019-03-12T12:52:19.565Z,24.20
2019-03-12T12:54:51.816Z,22.80
2019-03-12T12:57:23.962Z,22.30
2019-03-12T12:59:55.774Z,22.50
2019-03-12T13:02:27.641Z,23.40
2019-03-12T13:04:59.525Z,24.50
2019-03-12T13:07:31.821Z,24.80
2019-03-12T13:10:04.062Z,23.70
2019-03-12T13:12:36.512Z,22.00
2019-03-12T13:15:09.547Z,21.10
2019-03-12T13:17:41.752Z,19.70
2019-03-12T13:20:14.313Z,19.80
2019-03-12T13:22:46.483Z,19.40
2019-03-12T13:25:18.326Z,18.00
2019-03-12T13:27:50.168Z,17.50
2019-03-12T13:30:22.166Z,16.10
2019-03-12T13:32:54.068Z,16.60
2019-03-12T13:35:26.456Z,16.40
2019-03-12T13:37:58.324Z,15.60
2019-03-12T13:40:30.433Z,16.00
2019-03-12T13:43:02.285Z,17.40
2019-03-12T13:45:34.412Z,17.80
2019-03-12T13:48:06.338Z,18.30
2019-03-12T13:50:38.502Z,19.30
2019-03-12T13:53:10.470Z,17.80
2019-03-12T13:55:42.981Z,16.40
2019-03-12T13:58:14.842Z,15.70
2019-03-12T14:00:46.651Z,15.10
2019-03-12T14:03:18.699Z,14.50
2019-03-12T14:05:50.854Z,14.10
2019-03-12T14:08:22.693Z,14.00
2019-03-12T14:10:54.486Z,13.90
2019-03-12T14:13:26.320Z,13.30
2019-03-12T14:15:58.122Z,12.60
2019-03-12T14:18:31.173Z,12.80
2019-03-12T14:21:11.078Z,12.80
2019-03-12T14:23:54.174Z,12.50
2019-03-12T14:26:26.320Z,12.60
2019-03-12T14:28:58.157Z,12.50
2019-03-12T14:31:30.235Z,13.00
2019-03-12T14:34:02.089Z,13.10
2019-03-12T14:36:34.385Z,13.10
2019-03-12T14:39:08.080Z,13.30
2019-03-12T14:41:39.907Z,12.90
2019-03-12T14:44:11.927Z,12.80
2019-03-12T14:46:43.791Z,12.50
2019-03-12T14:49:18.326Z,12.70
2019-03-12T14:52:23.500Z,12.60
2019-03-12T14:54:55.350Z,12.50
2019-03-12T14:57:27.398Z,12.30
2019-03-12T14:59:59.407Z,12.20
2019-03-12T15:02:34.225Z,12.10
2019-03-12T15:05:07.320Z,11.90
2019-03-12T15:07:39.776Z,11.70
2019-03-12T15:10:12.350Z,11.70
2019-03-12T15:12:44.205Z,12.00
2019-03-12T15:15:16.193Z,11.90
2019-03-12T15:17:48.350Z,11.80
2019-03-12T15:20:20.253Z,12.20
2019-03-12T15:22:52.054Z,11.90
2019-03-12T15:25:23.897Z,12.00
2019-03-12T15:27:55.722Z,11.60
2019-03-12T15:30:27.601Z,11.20
2019-03-12T15:32:59.416Z,11.20
2019-03-12T15:35:31.377Z,11.30
2019-03-12T15:38:03.186Z,11.50
2019-03-12T15:40:35.099Z,11.60
2019-03-12T15:43:06.910Z,12.00
2019-03-12T15:45:38.811Z,11.70
2019-03-12T15:48:10.690Z,11.60
2019-03-12T15:50:42.574Z,11.70
2019-03-12T15:53:14.979Z,11.80
2019-03-12T15:55:47.005Z,12.00
2019-03-12T15:58:18.807Z,11.40
2019-03-12T16:00:50.673Z,11.40
2019-03-12T16:03:22.832Z,11.30
2019-03-12T16:05:54.882Z,11.30
2019-03-12T16:08:26.780Z,11.30
2019-03-12T16:10:58.814Z,11.20
2019-03-12T16:13:30.635Z,11.60
2019-03-12T16:16:03.388Z,11.50
2019-03-12T16:18:35.608Z,11.60
2019-03-12T16:21:07.923Z,11.90
2019-03-12T16:23:39.755Z,11.50
2019-03-12T16:26:11.940Z,11.40
2019-03-12T16:28:44.018Z,11.50
2019-03-12T16:31:16.189Z,11.10
2019-03-12T16:33:48.275Z,10.90
2019-03-12T16:36:20.117Z,10.70
2019-03-12T16:38:51.946Z,10.40
2019-03-12T16:41:23.803Z,10.60
2019-03-12T16:43:55.917Z,10.60
2019-03-12T16:46:28.089Z,10.40
2019-03-12T16:49:00.252Z,10.00
2019-03-12T16:51:32.086Z,10.10
2019-03-12T16:54:05.373Z,10.10
2019-03-12T16:56:45.118Z,10.10
2019-03-12T16:59:11.316Z,10.10
2019-03-12T17:01:43.121Z,9.90
2019-03-12T17:04:14.965Z,10.00
2019-03-12T17:06:46.772Z,9.80
2019-03-12T17:09:18.605Z,9.80
2019-03-12T17:11:50.706Z,9.80
2019-03-12T17:14:22.554Z,9.40
2019-03-12T17:16:54.363Z,9.50
2019-03-12T17:19:26.566Z,9.10
2019-03-12T17:21:58.794Z,9.00
2019-03-12T17:24:30.980Z,8.80
2019-03-12T17:27:02.873Z,9.00
2019-03-12T17:29:35.125Z,8.90
2019-03-12T17:32:06.978Z,9.00
2019-03-12T17:34:38.887Z,8.90
2019-03-12T17:37:10.762Z,9.00
2019-03-12T17:39:42.660Z,8.70
2019-03-12T17:42:14.551Z,8.90
2019-03-12T17:44:46.395Z,8.40
2019-03-12T17:47:18.505Z,8.50
2019-03-12T17:49:50.511Z,8.50
2019-03-12T17:52:22.409Z,8.40
2019-03-12T17:54:54.263Z,8.20
2019-03-12T17:57:26.200Z,8.50
2019-03-12T17:59:58.045Z,8.30
2019-03-12T18:02:41.917Z,8.50
2019-03-12T18:05:03.540Z,8.50
2019-03-12T18:07:35.350Z,8.30
2019-03-12T18:10:07.862Z,8.50
2019-03-12T18:12:39.695Z,8.20
2019-03-12T18:15:14.291Z,8.50
2019-03-12T18:17:46.103Z,8.50
2019-03-12T18:20:18.027Z,8.60
2019-03-12T18:22:49.986Z,8.40
2019-03-12T18:25:25.152Z,8.40
2019-03-12T18:27:56.974Z,8.40
2019-03-12T18:30:29.136Z,8.40
2019-03-12T18:33:01.844Z,8.30
2019-03-12T18:35:34.143Z,8.20
2019-03-12T18:38:05.950Z,8.20
2019-03-12T18:40:37.890Z,8.40
2019-03-12T18:43:09.952Z,8.00
2019-03-12T18:45:41.923Z,8.10
2019-03-12T18:48:13.990Z,8.30
2019-03-12T18:50:46.235Z,8.20
2019-03-12T18:53:18.067Z,8.10
2019-03-12T18:56:07.970Z,8.10
2019-03-12T18:58:40.069Z,8.00
2019-03-12T19:01:16.367Z,8.00
2019-03-12T19:03:48.166Z,7.90
2019-03-12T19:06:21.603Z,7.90
2019-03-12T19:08:53.784Z,8.10
2019-03-12T19:11:25.647Z,8.10
2019-03-12T19:13:57.822Z,8.00
2019-03-12T19:16:30.219Z,8.00
2019-03-12T19:19:02.128Z,7.90
2019-03-12T19:21:34.002Z,7.70
2019-03-12T19:24:05.939Z,7.90
2019-03-12T19:26:38.274Z,7.80
2019-03-12T19:29:10.157Z,8.00
2019-03-12T19:32:07.704Z,7.90
2019-03-12T19:34:39.919Z,7.90
2019-03-12T19:37:12.025Z,7.80
2019-03-12T19:39:43.953Z,7.90
2019-03-12T19:42:16.150Z,7.60
2019-03-12T19:44:48.245Z,7.70
2019-03-12T19:47:20.725Z,7.90
2019-03-12T19:49:52.751Z,7.90
2019-03-12T19:52:24.812Z,7.90
2019-03-12T19:54:56.992Z,7.90
2019-03-12T19:57:28.907Z,7.80
2019-03-12T20:00:01.124Z,7.80
2019-03-12T20:02:33.802Z,7.80
2019-03-12T20:05:07.354Z,7.80
2019-03-12T20:07:39.234Z,7.70
2019-03-12T20:11:40.682Z,8.00
2019-03-12T20:15:16.853Z,7.50
2019-03-12T20:18:56.538Z,7.20
2019-03-12T20:22:55.765Z,7.20
2019-03-12T20:26:14.304Z,7.20
2019-03-12T20:29:39.899Z,7.10
2019-03-12T20:32:48.706Z,7.20
2019-03-12T20:36:33.154Z,7.30
2019-03-12T20:40:00.173Z,7.40
2019-03-12T20:43:46.049Z,7.50
2019-03-12T20:47:27.863Z,7.30
2019-03-12T20:50:57.153Z,7.30
2019-03-12T20:54:17.903Z,7.10
2019-03-12T20:57:47.829Z,7.30
2019-03-12T21:01:15.427Z,7.30
2019-03-12T21:04:35.735Z,7.40
2019-03-12T21:08:38.541Z,7.30
2019-03-12T21:12:09.437Z,7.20
2019-03-12T21:15:59.864Z,7.30
2019-03-12T21:19:49.569Z,7.30
2019-03-12T21:23:19.955Z,7.10
2019-03-12T21:27:03.957Z,7.20
2019-03-12T21:29:50.430Z,7.10
2019-03-12T21:32:22.451Z,7.40
2019-03-12T21:34:54.767Z,7.30
2019-03-12T21:37:26.582Z,7.50
2019-03-12T21:39:58.505Z,7.30
2019-03-12T21:42:30.717Z,7.30
2019-03-12T21:45:03.350Z,7.40
2019-03-12T21:47:36.239Z,7.30
2019-03-12T21:50:08.564Z,7.30
2019-03-12T21:52:40.401Z,7.20
2019-03-12T21:55:12.672Z,7.20
2019-03-12T21:57:44.489Z,7.20
2019-03-12T22:00:17.159Z,7.10
2019-03-12T22:02:49.579Z,6.90
2019-03-12T22:05:21.733Z,7.20
2019-03-12T22:07:53.553Z,7.20
2019-03-12T22:10:25.516Z,7.20
2019-03-12T22:12:57.343Z,7.30
2019-03-12T22:15:30.331Z,7.00
2019-03-12T22:18:02.149Z,7.00
2019-03-12T22:20:34.052Z,7.00
2019-03-12T22:23:34.179Z,7.20
2019-03-12T22:26:05.997Z,7.30
2019-03-12T22:28:38.075Z,7.30
2019-03-12T22:31:09.931Z,7.50
2019-03-12T22:33:42.008Z,7.40
2019-03-12T22:36:13.939Z,7.40
2019-03-12T22:38:45.744Z,7.20
2019-03-12T22:41:17.942Z,7.30
2019-03-12T22:43:49.861Z,7.40
2019-03-12T22:46:21.735Z,7.30
2019-03-12T22:48:53.975Z,7.30
2019-03-12T22:51:25.839Z,7.60
2019-03-12T22:53:57.643Z,7.40
2019-03-12T22:56:29.612Z,7.50
2019-03-12T22:59:01.422Z,7.40
2019-03-12T23:01:33.262Z,7.40
2019-03-12T23:04:05.350Z,7.10
2019-03-12T23:06:37.506Z,7.40
2019-03-12T23:09:09.315Z,7.20
2019-03-12T23:11:41.155Z,7.50
2019-03-12T23:14:12.955Z,7.50
2019-03-12T23:16:44.866Z,7.30
2019-03-12T23:19:16.655Z,7.60
2019-03-12T23:21:48.536Z,7.50
2019-03-12T23:24:20.349Z,7.50
2019-03-12T23:26:52.430Z,7.60
2019-03-12T23:29:24.351Z,7.60
2019-03-12T23:31:56.190Z,7.70
2019-03-12T23:34:27.998Z,7.80
2019-03-12T23:36:59.976Z,7.70
2019-03-12T23:39:31.766Z,7.80
2019-03-12T23:42:03.603Z,7.90
2019-03-12T23:44:35.386Z,7.80
2019-03-12T23:47:07.272Z,7.80
2019-03-12T23:49:39.067Z,7.70
2019-03-12T23:52:10.930Z,7.40
2019-03-12T23:54:43.036Z,7.80
2019-03-12T23:57:15.290Z,7.50
2019-03-12T23:59:47.094Z,7.30
